sensor_id;sensor_type;location;lat;lon;timestamp;P1;durP1;ratioP1;P2;durP2;ratioP2
73672;SDS011;61972;19.480;-99.240;2023-08-01T00:00:06;13.02;;;5.22;;
73672;SDS011;61972;19.480;-99.240;2023-08-01T00:02:33;12.27;;;5.05;;
73672;SDS011;61972;19.480;-99.240;2023-08-01T00:04:59;13.65;;;4.30;;
73672;SDS011;61972;19.480;-99.240;2023-08-01T00:07:29;12.32;;;3.85;;
73672;SDS011;61972;19.480;-99.240;2023-08-01T00:09:55;13.63;;;4.80;;
73672;SDS011;61972;19.480;-99.240;2023-08-01T00:12:21;13.70;;;4.22;;
73672;SDS011;61972;19.480;-99.240;2023-08-01T00:14:49;14.85;;;4.53;;
73672;SDS011;61972;19.480;-99.240;2023-08-01T00:17:15;15.10;;;4.95;;
73672;SDS011;61972;19.480;-99.240;2023-08-01T00:19:41;16.20;;;4.72;;
73672;SDS011;61972;19.480;-99.240;2023-08-01T00:22:08;12.37;;;4.77;;
73672;SDS011;61972;19.480;-99.240;2023-08-01T00:24:35;9.75;;;4.13;;
73672;SDS011;61972;19.480;-99.240;2023-08-01T00:27:01;7.40;;;3.83;;
73672;SDS011;61972;19.480;-99.240;2023-08-01T00:29:27;14.57;;;4.30;;
73672;SDS011;61972;19.480;-99.240;2023-08-01T00:31:53;8.52;;;3.80;;
73672;SDS011;61972;19.480;-99.240;2023-08-01T00:34:19;11.23;;;3.13;;
73672;SDS011;61972;19.480;-99.240;2023-08-01T00:36:45;9.50;;;3.70;;
73672;SDS011;61972;19.480;-99.240;2023-08-01T00:39:11;7.97;;;3.50;;
73672;SDS011;61972;19.480;-99.240;2023-08-01T00:41:38;9.05;;;2.90;;
73672;SDS011;61972;19.480;-99.240;2023-08-01T00:44:04;7.53;;;2.90;;
73672;SDS011;61972;19.480;-99.240;2023-08-01T00:46:30;6.35;;;2.90;;
73672;SDS011;61972;19.480;-99.240;2023-08-01T00:48:57;10.82;;;2.65;;
73672;SDS011;61972;19.480;-99.240;2023-08-01T00:51:25;6.05;;;2.17;;
73672;SDS011;61972;19.480;-99.240;2023-08-01T00:53:52;13.20;;;2.30;;
73672;SDS011;61972;19.480;-99.240;2023-08-01T00:56:18;10.30;;;2.50;;
73672;SDS011;61972;19.480;-99.240;2023-08-01T00:58:45;13.20;;;2.53;;
73672;SDS011;61972;19.480;-99.240;2023-08-01T01:01:11;7.15;;;2.20;;
73672;SDS011;61972;19.480;-99.240;2023-08-01T01:03:37;9.32;;;2.00;;
73672;SDS011;61972;19.480;-99.240;2023-08-01T01:06:14;5.75;;;2.08;;
73672;SDS011;61972;19.480;-99.240;2023-08-01T01:08:48;8.27;;;2.50;;
73672;SDS011;61972;19.480;-99.240;2023-08-01T01:11:15;12.82;;;2.88;;
73672;SDS011;61972;19.480;-99.240;2023-08-01T01:13:41;8.68;;;2.03;;
73672;SDS011;61972;19.480;-99.240;2023-08-01T01:16:07;7.63;;;2.10;;
73672;SDS011;61972;19.480;-99.240;2023-08-01T01:18:33;9.48;;;2.40;;
73672;SDS011;61972;19.480;-99.240;2023-08-01T01:20:59;8.95;;;2.53;;
73672;SDS011;61972;19.480;-99.240;2023-08-01T01:23:25;13.03;;;2.27;;
73672;SDS011;61972;19.480;-99.240;2023-08-01T01:25:52;9.02;;;2.08;;
73672;SDS011;61972;19.480;-99.240;2023-08-01T01:28:22;5.78;;;2.10;;
73672;SDS011;61972;19.480;-99.240;2023-08-01T01:30:48;7.40;;;2.40;;
73672;SDS011;61972;19.480;-99.240;2023-08-01T01:33:15;7.88;;;2.10;;
73672;SDS011;61972;19.480;-99.240;2023-08-01T01:35:41;7.43;;;2.30;;
73672;SDS011;61972;19.480;-99.240;2023-08-01T01:38:07;5.53;;;1.98;;
73672;SDS011;61972;19.480;-99.240;2023-08-01T01:40:34;4.72;;;2.15;;
73672;SDS011;61972;19.480;-99.240;2023-08-01T01:43:00;4.70;;;2.35;;
73672;SDS011;61972;19.480;-99.240;2023-08-01T01:45:27;6.32;;;2.40;;
73672;SDS011;61972;19.480;-99.240;2023-08-01T01:47:53;5.13;;;2.60;;
73672;SDS011;61972;19.480;-99.240;2023-08-01T01:50:19;10.32;;;3.45;;
73672;SDS011;61972;19.480;-99.240;2023-08-01T01:52:45;9.05;;;3.65;;
73672;SDS011;61972;19.480;-99.240;2023-08-01T01:55:12;11.27;;;4.68;;
73672;SDS011;61972;19.480;-99.240;2023-08-01T01:57:38;7.05;;;3.08;;
73672;SDS011;61972;19.480;-99.240;2023-08-01T02:00:04;19.20;;;11.82;;
73672;SDS011;61972;19.480;-99.240;2023-08-01T02:02:31;20.95;;;15.27;;
73672;SDS011;61972;19.480;-99.240;2023-08-01T02:04:57;21.63;;;13.85;;
73672;SDS011;61972;19.480;-99.240;2023-08-01T02:07:23;20.25;;;16.50;;
73672;SDS011;61972;19.480;-99.240;2023-08-01T02:09:49;35.20;;;23.10;;
73672;SDS011;61972;19.480;-99.240;2023-08-01T02:12:15;26.45;;;17.23;;
73672;SDS011;61972;19.480;-99.240;2023-08-01T02:14:41;28.38;;;19.80;;
73672;SDS011;61972;19.480;-99.240;2023-08-01T02:17:08;30.95;;;21.38;;
73672;SDS011;61972;19.480;-99.240;2023-08-01T02:19:34;30.13;;;17.52;;
73672;SDS011;61972;19.480;-99.240;2023-08-01T02:22:00;29.10;;;17.15;;
73672;SDS011;61972;19.480;-99.240;2023-08-01T02:24:26;24.77;;;14.93;;
73672;SDS011;61972;19.480;-99.240;2023-08-01T02:26:52;15.10;;;10.88;;
73672;SDS011;61972;19.480;-99.240;2023-08-01T02:29:18;20.88;;;13.63;;
73672;SDS011;61972;19.480;-99.240;2023-08-01T02:31:44;17.83;;;11.10;;
73672;SDS011;61972;19.480;-99.240;2023-08-01T02:34:10;17.77;;;11.30;;
73672;SDS011;61972;19.480;-99.240;2023-08-01T02:36:37;19.55;;;10.98;;
73672;SDS011;61972;19.480;-99.240;2023-08-01T02:39:15;20.70;;;11.00;;
73672;SDS011;61972;19.480;-99.240;2023-08-01T02:41:51;19.98;;;10.27;;
73672;SDS011;61972;19.480;-99.240;2023-08-01T02:44:17;22.60;;;10.35;;
73672;SDS011;61972;19.480;-99.240;2023-08-01T02:46:43;16.33;;;9.32;;
73672;SDS011;61972;19.480;-99.240;2023-08-01T02:49:09;15.27;;;8.40;;
73672;SDS011;61972;19.480;-99.240;2023-08-01T02:51:35;16.63;;;7.10;;
73672;SDS011;61972;19.480;-99.240;2023-08-01T02:54:01;14.75;;;7.57;;
73672;SDS011;61972;19.480;-99.240;2023-08-01T02:56:27;14.73;;;6.72;;
73672;SDS011;61972;19.480;-99.240;2023-08-01T02:58:54;13.00;;;5.90;;
73672;SDS011;61972;19.480;-99.240;2023-08-01T03:01:21;11.02;;;5.68;;
73672;SDS011;61972;19.480;-99.240;2023-08-01T03:03:47;11.52;;;5.88;;
73672;SDS011;61972;19.480;-99.240;2023-08-01T03:06:13;14.10;;;5.53;;
73672;SDS011;61972;19.480;-99.240;2023-08-01T03:08:39;11.52;;;5.25;;
73672;SDS011;61972;19.480;-99.240;2023-08-01T03:11:05;14.38;;;4.53;;
73672;SDS011;61972;19.480;-99.240;2023-08-01T03:13:31;12.23;;;4.65;;
73672;SDS011;61972;19.480;-99.240;2023-08-01T03:15:57;10.18;;;5.00;;
73672;SDS011;61972;19.480;-99.240;2023-08-01T03:18:23;9.55;;;4.65;;
73672;SDS011;61972;19.480;-99.240;2023-08-01T03:20:50;11.40;;;4.10;;
73672;SDS011;61972;19.480;-99.240;2023-08-01T03:23:16;9.55;;;4.18;;
73672;SDS011;61972;19.480;-99.240;2023-08-01T03:25:42;9.80;;;4.10;;
73672;SDS011;61972;19.480;-99.240;2023-08-01T03:28:09;11.00;;;4.30;;
73672;SDS011;61972;19.480;-99.240;2023-08-01T03:30:35;9.55;;;3.72;;
73672;SDS011;61972;19.480;-99.240;2023-08-01T03:33:01;8.00;;;3.50;;
73672;SDS011;61972;19.480;-99.240;2023-08-01T03:35:28;9.32;;;3.45;;
73672;SDS011;61972;19.480;-99.240;2023-08-01T03:37:54;8.83;;;3.30;;
73672;SDS011;61972;19.480;-99.240;2023-08-01T03:40:20;6.55;;;2.83;;
73672;SDS011;61972;19.480;-99.240;2023-08-01T03:42:46;7.50;;;3.00;;
73672;SDS011;61972;19.480;-99.240;2023-08-01T03:45:12;10.00;;;3.15;;
73672;SDS011;61972;19.480;-99.240;2023-08-01T03:47:38;5.68;;;3.22;;
73672;SDS011;61972;19.480;-99.240;2023-08-01T03:50:04;10.63;;;3.50;;
73672;SDS011;61972;19.480;-99.240;2023-08-01T03:52:31;8.10;;;2.92;;
73672;SDS011;61972;19.480;-99.240;2023-08-01T03:54:57;10.20;;;2.92;;
73672;SDS011;61972;19.480;-99.240;2023-08-01T03:57:23;6.82;;;3.20;;
73672;SDS011;61972;19.480;-99.240;2023-08-01T03:59:49;7.82;;;3.30;;
73672;SDS011;61972;19.480;-99.240;2023-08-01T04:02:15;9.50;;;3.20;;
73672;SDS011;61972;19.480;-99.240;2023-08-01T04:04:42;7.40;;;2.97;;
73672;SDS011;61972;19.480;-99.240;2023-08-01T04:07:08;13.38;;;2.90;;
73672;SDS011;61972;19.480;-99.240;2023-08-01T04:09:34;6.55;;;3.25;;
73672;SDS011;61972;19.480;-99.240;2023-08-01T04:12:00;9.65;;;2.97;;
73672;SDS011;61972;19.480;-99.240;2023-08-01T04:14:26;11.53;;;3.50;;
73672;SDS011;61972;19.480;-99.240;2023-08-01T04:16:52;11.13;;;3.50;;
73672;SDS011;61972;19.480;-99.240;2023-08-01T04:19:18;11.52;;;3.03;;
73672;SDS011;61972;19.480;-99.240;2023-08-01T04:21:45;10.77;;;3.72;;
73672;SDS011;61972;19.480;-99.240;2023-08-01T04:24:11;8.00;;;3.47;;
73672;SDS011;61972;19.480;-99.240;2023-08-01T04:26:37;9.57;;;3.27;;
73672;SDS011;61972;19.480;-99.240;2023-08-01T04:29:03;11.80;;;3.53;;
73672;SDS011;61972;19.480;-99.240;2023-08-01T04:31:29;9.43;;;3.88;;
73672;SDS011;61972;19.480;-99.240;2023-08-01T04:33:55;8.15;;;3.88;;
73672;SDS011;61972;19.480;-99.240;2023-08-01T04:36:21;11.80;;;4.10;;
73672;SDS011;61972;19.480;-99.240;2023-08-01T04:38:47;8.23;;;4.23;;
73672;SDS011;61972;19.480;-99.240;2023-08-01T04:41:14;11.48;;;4.35;;
73672;SDS011;61972;19.480;-99.240;2023-08-01T04:43:40;9.35;;;4.20;;
73672;SDS011;61972;19.480;-99.240;2023-08-01T04:46:06;11.43;;;4.15;;
73672;SDS011;61972;19.480;-99.240;2023-08-01T04:48:32;11.27;;;4.55;;
73672;SDS011;61972;19.480;-99.240;2023-08-01T04:50:58;9.83;;;4.20;;
73672;SDS011;61972;19.480;-99.240;2023-08-01T04:53:25;14.93;;;4.25;;
73672;SDS011;61972;19.480;-99.240;2023-08-01T04:55:51;10.10;;;3.85;;
73672;SDS011;61972;19.480;-99.240;2023-08-01T04:58:17;8.07;;;3.70;;
73672;SDS011;61972;19.480;-99.240;2023-08-01T05:00:43;8.45;;;3.78;;
73672;SDS011;61972;19.480;-99.240;2023-08-01T05:03:09;10.43;;;4.07;;
73672;SDS011;61972;19.480;-99.240;2023-08-01T05:05:35;9.38;;;4.03;;
73672;SDS011;61972;19.480;-99.240;2023-08-01T05:08:01;6.78;;;3.55;;
73672;SDS011;61972;19.480;-99.240;2023-08-01T05:10:27;7.68;;;3.63;;
73672;SDS011;61972;19.480;-99.240;2023-08-01T05:12:53;11.57;;;3.78;;
73672;SDS011;61972;19.480;-99.240;2023-08-01T05:15:19;7.57;;;3.17;;
73672;SDS011;61972;19.480;-99.240;2023-08-01T05:17:45;12.13;;;3.40;;
73672;SDS011;61972;19.480;-99.240;2023-08-01T05:20:11;11.10;;;3.40;;
73672;SDS011;61972;19.480;-99.240;2023-08-01T05:22:38;7.20;;;3.47;;
73672;SDS011;61972;19.480;-99.240;2023-08-01T05:25:04;8.88;;;3.05;;
73672;SDS011;61972;19.480;-99.240;2023-08-01T05:27:30;12.53;;;3.33;;
73672;SDS011;61972;19.480;-99.240;2023-08-01T05:29:56;14.10;;;3.22;;
73672;SDS011;61972;19.480;-99.240;2023-08-01T05:32:23;5.80;;;2.70;;
73672;SDS011;61972;19.480;-99.240;2023-08-01T05:34:49;13.20;;;3.60;;
73672;SDS011;61972;19.480;-99.240;2023-08-01T05:37:15;10.77;;;3.00;;
73672;SDS011;61972;19.480;-99.240;2023-08-01T05:39:41;6.80;;;3.15;;
73672;SDS011;61972;19.480;-99.240;2023-08-01T05:42:07;6.65;;;2.83;;
73672;SDS011;61972;19.480;-99.240;2023-08-01T05:44:34;6.78;;;2.75;;
73672;SDS011;61972;19.480;-99.240;2023-08-01T05:47:00;8.50;;;2.80;;
73672;SDS011;61972;19.480;-99.240;2023-08-01T05:49:26;7.43;;;2.90;;
73672;SDS011;61972;19.480;-99.240;2023-08-01T05:51:54;4.40;;;2.63;;
73672;SDS011;61972;19.480;-99.240;2023-08-01T05:54:21;6.43;;;2.78;;
73672;SDS011;61972;19.480;-99.240;2023-08-01T05:56:47;6.82;;;2.78;;
73672;SDS011;61972;19.480;-99.240;2023-08-01T05:59:13;5.30;;;2.83;;
73672;SDS011;61972;19.480;-99.240;2023-08-01T06:01:39;5.78;;;2.47;;
73672;SDS011;61972;19.480;-99.240;2023-08-01T06:04:05;7.23;;;3.00;;
73672;SDS011;61972;19.480;-99.240;2023-08-01T06:06:31;5.22;;;2.88;;
73672;SDS011;61972;19.480;-99.240;2023-08-01T06:08:57;6.05;;;2.60;;
73672;SDS011;61972;19.480;-99.240;2023-08-01T06:11:23;6.93;;;2.90;;
73672;SDS011;61972;19.480;-99.240;2023-08-01T06:13:51;6.32;;;2.90;;
73672;SDS011;61972;19.480;-99.240;2023-08-01T06:16:17;4.50;;;2.15;;
73672;SDS011;61972;19.480;-99.240;2023-08-01T06:18:43;5.28;;;2.40;;
73672;SDS011;61972;19.480;-99.240;2023-08-01T06:21:09;4.45;;;2.50;;
73672;SDS011;61972;19.480;-99.240;2023-08-01T06:23:36;6.63;;;2.40;;
73672;SDS011;61972;19.480;-99.240;2023-08-01T06:26:02;6.22;;;2.38;;
73672;SDS011;61972;19.480;-99.240;2023-08-01T06:28:28;5.45;;;2.63;;
73672;SDS011;61972;19.480;-99.240;2023-08-01T06:30:54;4.50;;;2.50;;
73672;SDS011;61972;19.480;-99.240;2023-08-01T06:33:20;5.07;;;2.35;;
73672;SDS011;61972;19.480;-99.240;2023-08-01T06:35:48;4.45;;;2.40;;
73672;SDS011;61972;19.480;-99.240;2023-08-01T06:38:14;6.22;;;2.60;;
73672;SDS011;61972;19.480;-99.240;2023-08-01T06:40:40;7.07;;;2.50;;
73672;SDS011;61972;19.480;-99.240;2023-08-01T06:43:07;4.13;;;2.33;;
73672;SDS011;61972;19.480;-99.240;2023-08-01T06:45:33;6.32;;;2.42;;
73672;SDS011;61972;19.480;-99.240;2023-08-01T06:47:59;5.20;;;2.55;;
73672;SDS011;61972;19.480;-99.240;2023-08-01T06:50:25;5.57;;;2.30;;
73672;SDS011;61972;19.480;-99.240;2023-08-01T06:52:51;6.63;;;2.60;;
73672;SDS011;61972;19.480;-99.240;2023-08-01T06:55:17;4.60;;;2.17;;
73672;SDS011;61972;19.480;-99.240;2023-08-01T06:57:43;4.68;;;2.58;;
73672;SDS011;61972;19.480;-99.240;2023-08-01T07:00:09;6.40;;;2.40;;
73672;SDS011;61972;19.480;-99.240;2023-08-01T07:02:36;6.50;;;2.38;;
73672;SDS011;61972;19.480;-99.240;2023-08-01T07:05:02;3.83;;;2.25;;
73672;SDS011;61972;19.480;-99.240;2023-08-01T07:07:30;4.70;;;2.38;;
73672;SDS011;61972;19.480;-99.240;2023-08-01T07:09:56;4.03;;;2.13;;
73672;SDS011;61972;19.480;-99.240;2023-08-01T07:12:22;5.50;;;2.35;;
73672;SDS011;61972;19.480;-99.240;2023-08-01T07:14:48;4.38;;;1.92;;
73672;SDS011;61972;19.480;-99.240;2023-08-01T07:17:14;5.15;;;1.98;;
73672;SDS011;61972;19.480;-99.240;2023-08-01T07:19:40;3.40;;;1.88;;
73672;SDS011;61972;19.480;-99.240;2023-08-01T07:22:06;5.05;;;2.10;;
73672;SDS011;61972;19.480;-99.240;2023-08-01T07:24:32;3.65;;;2.08;;
73672;SDS011;61972;19.480;-99.240;2023-08-01T07:26:59;4.90;;;2.10;;
73672;SDS011;61972;19.480;-99.240;2023-08-01T07:29:25;5.30;;;2.30;;
73672;SDS011;61972;19.480;-99.240;2023-08-01T07:31:51;3.83;;;2.30;;
73672;SDS011;61972;19.480;-99.240;2023-08-01T07:34:17;4.25;;;2.00;;
73672;SDS011;61972;19.480;-99.240;2023-08-01T07:36:43;4.20;;;2.10;;
73672;SDS011;61972;19.480;-99.240;2023-08-01T07:39:11;4.30;;;2.15;;
73672;SDS011;61972;19.480;-99.240;2023-08-01T07:41:37;4.70;;;2.20;;
73672;SDS011;61972;19.480;-99.240;2023-08-01T07:44:03;4.68;;;2.00;;
73672;SDS011;61972;19.480;-99.240;2023-08-01T07:46:30;5.15;;;2.33;;
73672;SDS011;61972;19.480;-99.240;2023-08-01T07:48:57;5.05;;;2.03;;
73672;SDS011;61972;19.480;-99.240;2023-08-01T07:51:25;3.80;;;2.10;;
73672;SDS011;61972;19.480;-99.240;2023-08-01T07:53:52;3.85;;;1.80;;
73672;SDS011;61972;19.480;-99.240;2023-08-01T07:56:19;4.75;;;2.30;;
73672;SDS011;61972;19.480;-99.240;2023-08-01T07:58:45;3.10;;;1.80;;
73672;SDS011;61972;19.480;-99.240;2023-08-01T08:01:11;4.05;;;1.77;;
73672;SDS011;61972;19.480;-99.240;2023-08-01T08:03:38;4.60;;;2.10;;
73672;SDS011;61972;19.480;-99.240;2023-08-01T08:06:04;5.78;;;1.80;;
73672;SDS011;61972;19.480;-99.240;2023-08-01T08:08:30;5.55;;;2.35;;
73672;SDS011;61972;19.480;-99.240;2023-08-01T08:11:01;5.95;;;2.53;;
73672;SDS011;61972;19.480;-99.240;2023-08-01T08:13:28;4.15;;;2.13;;
73672;SDS011;61972;19.480;-99.240;2023-08-01T08:15:57;4.97;;;2.10;;
73672;SDS011;61972;19.480;-99.240;2023-08-01T08:18:24;6.22;;;1.88;;
73672;SDS011;61972;19.480;-99.240;2023-08-01T08:20:50;4.03;;;1.83;;
73672;SDS011;61972;19.480;-99.240;2023-08-01T08:23:16;3.38;;;2.05;;
73672;SDS011;61972;19.480;-99.240;2023-08-01T08:25:44;3.35;;;1.40;;
73672;SDS011;61972;19.480;-99.240;2023-08-01T08:28:12;6.68;;;2.15;;
73672;SDS011;61972;19.480;-99.240;2023-08-01T08:30:39;3.35;;;1.98;;
73672;SDS011;61972;19.480;-99.240;2023-08-01T08:33:05;3.63;;;1.77;;
73672;SDS011;61972;19.480;-99.240;2023-08-01T08:35:35;4.45;;;1.88;;
73672;SDS011;61972;19.480;-99.240;2023-08-01T08:38:02;3.95;;;2.10;;
73672;SDS011;61972;19.480;-99.240;2023-08-01T08:40:32;3.35;;;2.03;;
73672;SDS011;61972;19.480;-99.240;2023-08-01T08:43:01;4.82;;;2.03;;
73672;SDS011;61972;19.480;-99.240;2023-08-01T08:45:34;4.43;;;2.00;;
73672;SDS011;61972;19.480;-99.240;2023-08-01T08:48:09;4.80;;;2.20;;
73672;SDS011;61972;19.480;-99.240;2023-08-01T08:50:38;3.75;;;1.88;;
73672;SDS011;61972;19.480;-99.240;2023-08-01T08:53:06;4.57;;;1.90;;
73672;SDS011;61972;19.480;-99.240;2023-08-01T08:55:39;3.15;;;1.70;;
73672;SDS011;61972;19.480;-99.240;2023-08-01T08:58:05;4.85;;;1.98;;
73672;SDS011;61972;19.480;-99.240;2023-08-01T09:00:32;4.05;;;1.90;;
73672;SDS011;61972;19.480;-99.240;2023-08-01T09:03:00;5.07;;;1.85;;
73672;SDS011;61972;19.480;-99.240;2023-08-01T09:05:27;3.05;;;1.88;;
73672;SDS011;61972;19.480;-99.240;2023-08-01T09:07:56;3.72;;;1.73;;
73672;SDS011;61972;19.480;-99.240;2023-08-01T09:10:26;3.72;;;2.00;;
73672;SDS011;61972;19.480;-99.240;2023-08-01T09:12:52;4.85;;;1.92;;
73672;SDS011;61972;19.480;-99.240;2023-08-01T09:15:19;3.78;;;1.80;;
73672;SDS011;61972;19.480;-99.240;2023-08-01T09:17:49;3.28;;;2.00;;
73672;SDS011;61972;19.480;-99.240;2023-08-01T09:20:16;3.92;;;1.98;;
73672;SDS011;61972;19.480;-99.240;2023-08-01T09:22:43;3.42;;;1.63;;
73672;SDS011;61972;19.480;-99.240;2023-08-01T09:25:10;7.70;;;2.03;;
73672;SDS011;61972;19.480;-99.240;2023-08-01T09:27:36;3.75;;;1.83;;
73672;SDS011;61972;19.480;-99.240;2023-08-01T09:30:20;2.97;;;1.70;;
73672;SDS011;61972;19.480;-99.240;2023-08-01T09:32:54;3.47;;;1.90;;
73672;SDS011;61972;19.480;-99.240;2023-08-01T09:35:21;7.35;;;1.92;;
73672;SDS011;61972;19.480;-99.240;2023-08-01T09:37:47;3.88;;;1.65;;
73672;SDS011;61972;19.480;-99.240;2023-08-01T09:40:14;2.78;;;1.50;;
73672;SDS011;61972;19.480;-99.240;2023-08-01T09:42:41;5.13;;;1.80;;
73672;SDS011;61972;19.480;-99.240;2023-08-01T09:45:13;6.18;;;1.80;;
73672;SDS011;61972;19.480;-99.240;2023-08-01T09:47:40;4.50;;;1.67;;
73672;SDS011;61972;19.480;-99.240;2023-08-01T09:50:10;2.92;;;1.60;;
73672;SDS011;61972;19.480;-99.240;2023-08-01T09:52:38;4.88;;;1.73;;
73672;SDS011;61972;19.480;-99.240;2023-08-01T09:55:05;2.55;;;1.40;;
73672;SDS011;61972;19.480;-99.240;2023-08-01T09:57:31;4.97;;;1.80;;
73672;SDS011;61972;19.480;-99.240;2023-08-01T09:59:59;9.05;;;1.40;;
73672;SDS011;61972;19.480;-99.240;2023-08-01T10:02:26;4.00;;;1.70;;
73672;SDS011;61972;19.480;-99.240;2023-08-01T10:04:58;4.03;;;1.55;;
73672;SDS011;61972;19.480;-99.240;2023-08-01T10:07:27;3.90;;;1.65;;
73672;SDS011;61972;19.480;-99.240;2023-08-01T10:09:57;5.32;;;1.70;;
73672;SDS011;61972;19.480;-99.240;2023-08-01T10:12:28;4.22;;;1.80;;
73672;SDS011;61972;19.480;-99.240;2023-08-01T10:14:55;3.25;;;1.60;;
73672;SDS011;61972;19.480;-99.240;2023-08-01T10:17:22;4.43;;;1.48;;
73672;SDS011;61972;19.480;-99.240;2023-08-01T10:19:50;3.65;;;1.50;;
73672;SDS011;61972;19.480;-99.240;2023-08-01T10:22:18;3.95;;;1.60;;
73672;SDS011;61972;19.480;-99.240;2023-08-01T10:24:46;3.20;;;1.58;;
73672;SDS011;61972;19.480;-99.240;2023-08-01T10:27:14;3.53;;;1.40;;
73672;SDS011;61972;19.480;-99.240;2023-08-01T10:29:41;3.90;;;1.50;;
73672;SDS011;61972;19.480;-99.240;2023-08-01T10:32:09;3.90;;;1.65;;
73672;SDS011;61972;19.480;-99.240;2023-08-01T10:34:36;2.83;;;1.43;;
73672;SDS011;61972;19.480;-99.240;2023-08-01T10:37:02;3.08;;;1.50;;
73672;SDS011;61972;19.480;-99.240;2023-08-01T10:39:28;4.45;;;1.48;;
73672;SDS011;61972;19.480;-99.240;2023-08-01T10:42:01;3.55;;;1.48;;
73672;SDS011;61972;19.480;-99.240;2023-08-01T10:44:30;2.22;;;1.52;;
73672;SDS011;61972;19.480;-99.240;2023-08-01T10:47:03;3.80;;;1.63;;
73672;SDS011;61972;19.480;-99.240;2023-08-01T10:49:37;3.72;;;1.60;;
73672;SDS011;61972;19.480;-99.240;2023-08-01T10:52:14;3.53;;;1.58;;
73672;SDS011;61972;19.480;-99.240;2023-08-01T10:54:45;3.22;;;1.65;;
73672;SDS011;61972;19.480;-99.240;2023-08-01T10:57:15;3.58;;;1.25;;
73672;SDS011;61972;19.480;-99.240;2023-08-01T10:59:45;2.80;;;1.60;;
73672;SDS011;61972;19.480;-99.240;2023-08-01T11:02:11;3.05;;;1.42;;
73672;SDS011;61972;19.480;-99.240;2023-08-01T11:04:37;3.50;;;1.27;;
73672;SDS011;61972;19.480;-99.240;2023-08-01T11:07:03;3.42;;;1.50;;
73672;SDS011;61972;19.480;-99.240;2023-08-01T11:09:30;2.58;;;1.50;;
73672;SDS011;61972;19.480;-99.240;2023-08-01T11:11:57;2.60;;;1.45;;
73672;SDS011;61972;19.480;-99.240;2023-08-01T11:14:28;3.53;;;1.70;;
73672;SDS011;61972;19.480;-99.240;2023-08-01T11:16:55;2.63;;;1.67;;
73672;SDS011;61972;19.480;-99.240;2023-08-01T11:19:22;4.05;;;1.25;;
73672;SDS011;61972;19.480;-99.240;2023-08-01T11:21:53;2.85;;;1.50;;
73672;SDS011;61972;19.480;-99.240;2023-08-01T11:24:22;3.97;;;1.55;;
73672;SDS011;61972;19.480;-99.240;2023-08-01T11:26:50;2.90;;;1.45;;
73672;SDS011;61972;19.480;-99.240;2023-08-01T11:29:17;2.00;;;1.30;;
73672;SDS011;61972;19.480;-99.240;2023-08-01T11:34:21;4.63;;;1.60;;
73672;SDS011;61972;19.480;-99.240;2023-08-01T11:36:47;5.82;;;1.45;;
73672;SDS011;61972;19.480;-99.240;2023-08-01T11:39:14;2.88;;;1.42;;
73672;SDS011;61972;19.480;-99.240;2023-08-01T11:41:42;3.53;;;1.50;;
73672;SDS011;61972;19.480;-99.240;2023-08-01T11:44:09;2.58;;;1.50;;
73672;SDS011;61972;19.480;-99.240;2023-08-01T11:46:36;2.58;;;1.45;;
73672;SDS011;61972;19.480;-99.240;2023-08-01T11:49:04;2.30;;;1.27;;
73672;SDS011;61972;19.480;-99.240;2023-08-01T11:51:38;3.05;;;1.40;;
73672;SDS011;61972;19.480;-99.240;2023-08-01T11:54:06;2.60;;;1.60;;
73672;SDS011;61972;19.480;-99.240;2023-08-01T11:56:33;4.00;;;1.40;;
73672;SDS011;61972;19.480;-99.240;2023-08-01T11:58:59;2.63;;;1.65;;
73672;SDS011;61972;19.480;-99.240;2023-08-01T12:01:37;3.45;;;1.50;;
73672;SDS011;61972;19.480;-99.240;2023-08-01T12:04:04;5.93;;;1.40;;
73672;SDS011;61972;19.480;-99.240;2023-08-01T12:06:31;2.90;;;1.50;;
73672;SDS011;61972;19.480;-99.240;2023-08-01T12:09:05;4.88;;;1.40;;
73672;SDS011;61972;19.480;-99.240;2023-08-01T12:11:36;2.35;;;1.30;;
73672;SDS011;61972;19.480;-99.240;2023-08-01T12:14:03;2.43;;;1.40;;
73672;SDS011;61972;19.480;-99.240;2023-08-01T12:16:46;3.53;;;1.40;;
73672;SDS011;61972;19.480;-99.240;2023-08-01T12:19:19;2.00;;;1.23;;
73672;SDS011;61972;19.480;-99.240;2023-08-01T12:21:46;2.45;;;1.30;;
73672;SDS011;61972;19.480;-99.240;2023-08-01T12:24:14;2.83;;;1.30;;
73672;SDS011;61972;19.480;-99.240;2023-08-01T12:26:41;2.23;;;1.40;;
73672;SDS011;61972;19.480;-99.240;2023-08-01T12:29:19;2.78;;;1.40;;
73672;SDS011;61972;19.480;-99.240;2023-08-01T12:31:45;3.10;;;1.40;;
73672;SDS011;61972;19.480;-99.240;2023-08-01T12:34:11;2.90;;;1.30;;
73672;SDS011;61972;19.480;-99.240;2023-08-01T12:36:38;2.35;;;1.33;;
73672;SDS011;61972;19.480;-99.240;2023-08-01T12:39:04;2.97;;;1.50;;
73672;SDS011;61972;19.480;-99.240;2023-08-01T12:41:35;2.63;;;1.23;;
73672;SDS011;61972;19.480;-99.240;2023-08-01T12:44:03;6.35;;;1.30;;
73672;SDS011;61972;19.480;-99.240;2023-08-01T12:46:30;3.50;;;1.40;;
73672;SDS011;61972;19.480;-99.240;2023-08-01T12:48:56;2.80;;;1.40;;
73672;SDS011;61972;19.480;-99.240;2023-08-01T12:51:22;2.30;;;1.40;;
73672;SDS011;61972;19.480;-99.240;2023-08-01T12:53:48;3.67;;;1.45;;
73672;SDS011;61972;19.480;-99.240;2023-08-01T12:56:14;2.38;;;1.38;;
73672;SDS011;61972;19.480;-99.240;2023-08-01T12:58:52;2.97;;;1.50;;
73672;SDS011;61972;19.480;-99.240;2023-08-01T13:01:19;2.55;;;1.50;;
73672;SDS011;61972;19.480;-99.240;2023-08-01T13:03:57;3.57;;;1.57;;
73672;SDS011;61972;19.480;-99.240;2023-08-01T13:06:27;2.55;;;1.50;;
73672;SDS011;61972;19.480;-99.240;2023-08-01T13:08:54;2.33;;;1.20;;
73672;SDS011;61972;19.480;-99.240;2023-08-01T13:11:20;2.40;;;1.38;;
73672;SDS011;61972;19.480;-99.240;2023-08-01T13:13:46;2.15;;;1.35;;
73672;SDS011;61972;19.480;-99.240;2023-08-01T13:16:12;3.13;;;1.60;;
73672;SDS011;61972;19.480;-99.240;2023-08-01T13:18:39;2.60;;;1.50;;
73672;SDS011;61972;19.480;-99.240;2023-08-01T13:21:09;2.83;;;1.30;;
73672;SDS011;61972;19.480;-99.240;2023-08-01T13:23:36;2.40;;;1.30;;
73672;SDS011;61972;19.480;-99.240;2023-08-01T13:26:02;2.15;;;1.33;;
73672;SDS011;61972;19.480;-99.240;2023-08-01T13:28:28;3.40;;;1.20;;
73672;SDS011;61972;19.480;-99.240;2023-08-01T13:30:54;2.20;;;1.50;;
73672;SDS011;61972;19.480;-99.240;2023-08-01T13:33:20;2.20;;;1.50;;
73672;SDS011;61972;19.480;-99.240;2023-08-01T13:35:46;2.90;;;1.48;;
73672;SDS011;61972;19.480;-99.240;2023-08-01T13:38:17;3.00;;;1.70;;
73672;SDS011;61972;19.480;-99.240;2023-08-01T13:40:43;3.10;;;1.57;;
73672;SDS011;61972;19.480;-99.240;2023-08-01T13:43:10;3.22;;;1.50;;
73672;SDS011;61972;19.480;-99.240;2023-08-01T13:45:36;3.47;;;1.70;;
73672;SDS011;61972;19.480;-99.240;2023-08-01T13:48:02;3.25;;;1.70;;
73672;SDS011;61972;19.480;-99.240;2023-08-01T13:50:28;4.13;;;1.95;;
73672;SDS011;61972;19.480;-99.240;2023-08-01T13:52:56;2.67;;;1.63;;
73672;SDS011;61972;19.480;-99.240;2023-08-01T13:55:23;4.22;;;2.10;;
73672;SDS011;61972;19.480;-99.240;2023-08-01T13:57:49;3.67;;;1.95;;
73672;SDS011;61972;19.480;-99.240;2023-08-01T14:00:15;3.13;;;1.75;;
73672;SDS011;61972;19.480;-99.240;2023-08-01T14:02:41;5.03;;;2.17;;
73672;SDS011;61972;19.480;-99.240;2023-08-01T14:05:07;4.07;;;1.70;;
73672;SDS011;61972;19.480;-99.240;2023-08-01T14:07:37;3.55;;;2.17;;
73672;SDS011;61972;19.480;-99.240;2023-08-01T14:10:03;4.35;;;2.20;;
73672;SDS011;61972;19.480;-99.240;2023-08-01T14:12:29;3.17;;;2.25;;
73672;SDS011;61972;19.480;-99.240;2023-08-01T14:14:55;3.78;;;2.50;;
73672;SDS011;61972;19.480;-99.240;2023-08-01T14:17:22;4.47;;;2.10;;
73672;SDS011;61972;19.480;-99.240;2023-08-01T14:19:48;4.50;;;2.20;;